Weather at Druskininkai Airfield

Public forecast

Using degrees Celsius for public forecast. Weather courtesy of forecast.io.

Closest aviation weather report (METAR) to Druskininkai Airfield

Report is more than 2 hours old.

Closest report is Hrodna Airport, 25.1 nm (46.5 km) S.

2024/07/18 13:00 (retrieved 6 hours ago)

UMMG 181300Z 29006G10MPS 9999 SCT040 27/12 Q1019 NOSIG

Closest aviation forecast (TAF) to Druskininkai Airfield

Closest forecast is Kaunas International Airport, 57.2 nm (105.9 km) N.

2024/07/18 18:00 (retrieved 35 minutes ago)

TAF EYKA 181700Z 1818/1918 26009KT 9000 NSC TEMPO 1907/1910 BKN025 BECMG 1910/1912 32010G20KT SCT045